« Back
NWS Peachtree City, Ga » Text Product » CSG Terminal Aerodrome Forecast


Printer-friendly Version
Current Version              Previous Versions:   1  2  3  4  5  6  7  8  9  

Terminal Aerodrome Forecast

176
FTUS42 KFFC 282300
TAFCSG
TAF
KCSG 282320Z 2900/2924 00000KT P6SM FEW250
     FM291600 20005KT P6SM FEW060=



USA.gov is the U.S. government's official web portal to all federal, state and local government web resources and services.